sensor_id;sensor_type;location;lat;lon;timestamp;P1;durP1;ratioP1;P2;durP2;ratioP2
10230;SDS011;62604;49.432;8.680;2022-12-18T00:02:18;7.40;;;5.97;;
10230;SDS011;62604;49.432;8.680;2022-12-18T00:04:46;12.83;;;7.73;;
10230;SDS011;62604;49.432;8.680;2022-12-18T00:07:13;11.43;;;7.20;;
10230;SDS011;62604;49.432;8.680;2022-12-18T00:09:40;14.10;;;6.07;;
10230;SDS011;62604;49.432;8.680;2022-12-18T00:12:08;8.50;;;7.23;;
10230;SDS011;62604;49.432;8.680;2022-12-18T00:14:35;16.20;;;7.90;;
10230;SDS011;62604;49.432;8.680;2022-12-18T00:17:02;9.30;;;8.37;;
10230;SDS011;62604;49.432;8.680;2022-12-18T00:19:29;9.10;;;6.63;;
10230;SDS011;62604;49.432;8.680;2022-12-18T00:21:56;10.47;;;5.97;;
10230;SDS011;62604;49.432;8.680;2022-12-18T00:24:24;15.77;;;7.00;;
10230;SDS011;62604;49.432;8.680;2022-12-18T00:26:51;16.13;;;7.70;;
10230;SDS011;62604;49.432;8.680;2022-12-18T00:29:19;9.37;;;6.70;;
10230;SDS011;62604;49.432;8.680;2022-12-18T00:31:46;8.00;;;5.40;;
10230;SDS011;62604;49.432;8.680;2022-12-18T00:34:13;12.10;;;6.30;;
10230;SDS011;62604;49.432;8.680;2022-12-18T00:36:41;20.03;;;9.03;;
10230;SDS011;62604;49.432;8.680;2022-12-18T00:39:08;6.17;;;5.10;;
10230;SDS011;62604;49.432;8.680;2022-12-18T00:41:36;15.20;;;7.63;;
10230;SDS011;62604;49.432;8.680;2022-12-18T00:44:22;10.00;;;7.00;;
10230;SDS011;62604;49.432;8.680;2022-12-18T00:46:49;12.60;;;8.40;;
10230;SDS011;62604;49.432;8.680;2022-12-18T00:49:16;9.83;;;6.03;;
10230;SDS011;62604;49.432;8.680;2022-12-18T00:51:45;7.23;;;6.53;;
10230;SDS011;62604;49.432;8.680;2022-12-18T00:54:12;11.17;;;8.93;;
10230;SDS011;62604;49.432;8.680;2022-12-18T00:56:39;9.33;;;6.20;;
10230;SDS011;62604;49.432;8.680;2022-12-18T00:59:09;6.70;;;5.67;;
10230;SDS011;62604;49.432;8.680;2022-12-18T01:01:37;20.63;;;7.37;;
10230;SDS011;62604;49.432;8.680;2022-12-18T01:04:04;13.30;;;6.27;;
10230;SDS011;62604;49.432;8.680;2022-12-18T01:06:31;15.40;;;9.00;;
10230;SDS011;62604;49.432;8.680;2022-12-18T01:08:58;12.90;;;7.13;;
10230;SDS011;62604;49.432;8.680;2022-12-18T01:11:25;12.17;;;6.33;;
10230;SDS011;62604;49.432;8.680;2022-12-18T01:13:52;12.37;;;7.13;;
10230;SDS011;62604;49.432;8.680;2022-12-18T01:16:20;9.73;;;6.13;;
10230;SDS011;62604;49.432;8.680;2022-12-18T01:18:52;16.03;;;8.77;;
10230;SDS011;62604;49.432;8.680;2022-12-18T01:21:20;15.03;;;5.37;;
10230;SDS011;62604;49.432;8.680;2022-12-18T01:23:50;10.83;;;6.50;;
10230;SDS011;62604;49.432;8.680;2022-12-18T01:26:18;16.33;;;7.30;;
10230;SDS011;62604;49.432;8.680;2022-12-18T01:28:45;8.00;;;6.03;;
10230;SDS011;62604;49.432;8.680;2022-12-18T01:31:14;10.87;;;8.07;;
10230;SDS011;62604;49.432;8.680;2022-12-18T01:33:43;19.43;;;8.83;;
10230;SDS011;62604;49.432;8.680;2022-12-18T01:36:19;8.83;;;6.20;;
10230;SDS011;62604;49.432;8.680;2022-12-18T01:38:47;11.07;;;8.90;;
10230;SDS011;62604;49.432;8.680;2022-12-18T01:41:16;11.03;;;6.73;;
10230;SDS011;62604;49.432;8.680;2022-12-18T01:43:47;17.10;;;7.63;;
10230;SDS011;62604;49.432;8.680;2022-12-18T01:46:17;18.30;;;8.73;;
10230;SDS011;62604;49.432;8.680;2022-12-18T01:48:45;12.53;;;8.57;;
10230;SDS011;62604;49.432;8.680;2022-12-18T01:51:15;15.57;;;9.03;;
10230;SDS011;62604;49.432;8.680;2022-12-18T01:53:44;11.47;;;6.57;;
10230;SDS011;62604;49.432;8.680;2022-12-18T01:56:12;15.20;;;6.90;;
10230;SDS011;62604;49.432;8.680;2022-12-18T01:58:43;8.87;;;7.67;;
10230;SDS011;62604;49.432;8.680;2022-12-18T02:01:16;14.80;;;8.10;;
10230;SDS011;62604;49.432;8.680;2022-12-18T02:03:44;17.57;;;9.40;;
10230;SDS011;62604;49.432;8.680;2022-12-18T02:06:12;14.20;;;8.80;;
10230;SDS011;62604;49.432;8.680;2022-12-18T02:08:47;13.53;;;7.47;;
10230;SDS011;62604;49.432;8.680;2022-12-18T02:11:23;20.50;;;10.17;;
10230;SDS011;62604;49.432;8.680;2022-12-18T02:13:57;7.07;;;6.27;;
10230;SDS011;62604;49.432;8.680;2022-12-18T02:16:33;12.63;;;7.73;;
10230;SDS011;62604;49.432;8.680;2022-12-18T02:19:08;8.40;;;6.07;;
10230;SDS011;62604;49.432;8.680;2022-12-18T02:21:55;6.63;;;5.03;;
10230;SDS011;62604;49.432;8.680;2022-12-18T02:24:41;7.77;;;5.43;;
10230;SDS011;62604;49.432;8.680;2022-12-18T02:27:15;8.80;;;5.73;;
10230;SDS011;62604;49.432;8.680;2022-12-18T02:29:44;6.90;;;6.13;;
10230;SDS011;62604;49.432;8.680;2022-12-18T02:32:16;9.93;;;8.77;;
10230;SDS011;62604;49.432;8.680;2022-12-18T02:34:47;14.00;;;8.07;;
10230;SDS011;62604;49.432;8.680;2022-12-18T02:37:17;13.63;;;10.23;;
10230;SDS011;62604;49.432;8.680;2022-12-18T02:39:46;9.67;;;8.77;;
10230;SDS011;62604;49.432;8.680;2022-12-18T02:42:16;10.93;;;9.90;;
10230;SDS011;62604;49.432;8.680;2022-12-18T02:44:45;11.80;;;6.77;;
10230;SDS011;62604;49.432;8.680;2022-12-18T02:47:14;7.30;;;5.53;;
10230;SDS011;62604;49.432;8.680;2022-12-18T02:49:44;13.43;;;8.03;;
10230;SDS011;62604;49.432;8.680;2022-12-18T02:52:24;16.10;;;7.83;;
10230;SDS011;62604;49.432;8.680;2022-12-18T02:55:00;14.63;;;7.47;;
10230;SDS011;62604;49.432;8.680;2022-12-18T02:57:40;12.27;;;7.30;;
10230;SDS011;62604;49.432;8.680;2022-12-18T03:00:11;9.77;;;7.10;;
10230;SDS011;62604;49.432;8.680;2022-12-18T03:02:41;9.37;;;7.53;;
10230;SDS011;62604;49.432;8.680;2022-12-18T03:05:14;19.73;;;6.67;;
10230;SDS011;62604;49.432;8.680;2022-12-18T03:07:44;13.33;;;6.47;;
10230;SDS011;62604;49.432;8.680;2022-12-18T03:10:17;9.43;;;7.57;;
10230;SDS011;62604;49.432;8.680;2022-12-18T03:12:52;11.57;;;6.60;;
10230;SDS011;62604;49.432;8.680;2022-12-18T03:15:22;8.50;;;7.70;;
10230;SDS011;62604;49.432;8.680;2022-12-18T03:17:55;8.80;;;6.53;;
10230;SDS011;62604;49.432;8.680;2022-12-18T03:20:25;12.83;;;7.97;;
10230;SDS011;62604;49.432;8.680;2022-12-18T03:22:57;9.50;;;5.60;;
10230;SDS011;62604;49.432;8.680;2022-12-18T03:25:29;5.47;;;4.67;;
10230;SDS011;62604;49.432;8.680;2022-12-18T03:28:00;9.97;;;6.10;;
10230;SDS011;62604;49.432;8.680;2022-12-18T03:30:30;12.93;;;6.30;;
10230;SDS011;62604;49.432;8.680;2022-12-18T03:33:01;7.80;;;5.57;;
10230;SDS011;62604;49.432;8.680;2022-12-18T03:35:34;13.23;;;8.40;;
10230;SDS011;62604;49.432;8.680;2022-12-18T03:38:04;13.70;;;10.50;;
10230;SDS011;62604;49.432;8.680;2022-12-18T03:40:35;14.63;;;8.00;;
10230;SDS011;62604;49.432;8.680;2022-12-18T03:43:12;9.43;;;6.00;;
10230;SDS011;62604;49.432;8.680;2022-12-18T03:45:46;9.67;;;5.33;;
10230;SDS011;62604;49.432;8.680;2022-12-18T03:48:19;20.23;;;11.53;;
10230;SDS011;62604;49.432;8.680;2022-12-18T03:50:55;24.20;;;7.57;;
10230;SDS011;62604;49.432;8.680;2022-12-18T03:53:28;11.23;;;6.10;;
10230;SDS011;62604;49.432;8.680;2022-12-18T03:56:02;10.07;;;4.20;;
10230;SDS011;62604;49.432;8.680;2022-12-18T03:58:32;8.83;;;5.87;;
10230;SDS011;62604;49.432;8.680;2022-12-18T04:01:02;10.67;;;6.60;;
10230;SDS011;62604;49.432;8.680;2022-12-18T04:03:34;13.63;;;7.43;;
10230;SDS011;62604;49.432;8.680;2022-12-18T04:06:03;14.83;;;7.47;;
10230;SDS011;62604;49.432;8.680;2022-12-18T04:08:32;12.37;;;5.23;;
10230;SDS011;62604;49.432;8.680;2022-12-18T04:11:00;10.30;;;6.77;;
10230;SDS011;62604;49.432;8.680;2022-12-18T04:13:28;14.30;;;7.63;;
10230;SDS011;62604;49.432;8.680;2022-12-18T04:15:59;13.07;;;6.37;;
10230;SDS011;62604;49.432;8.680;2022-12-18T04:18:26;12.23;;;7.70;;
10230;SDS011;62604;49.432;8.680;2022-12-18T04:20:53;9.80;;;7.50;;
10230;SDS011;62604;49.432;8.680;2022-12-18T04:23:20;11.07;;;8.67;;
10230;SDS011;62604;49.432;8.680;2022-12-18T04:25:47;16.30;;;9.83;;
10230;SDS011;62604;49.432;8.680;2022-12-18T04:28:14;10.77;;;7.30;;
10230;SDS011;62604;49.432;8.680;2022-12-18T04:30:41;11.07;;;6.83;;
10230;SDS011;62604;49.432;8.680;2022-12-18T04:33:09;8.83;;;7.93;;
10230;SDS011;62604;49.432;8.680;2022-12-18T04:35:37;8.93;;;7.97;;
10230;SDS011;62604;49.432;8.680;2022-12-18T04:38:05;18.23;;;8.87;;
10230;SDS011;62604;49.432;8.680;2022-12-18T04:40:33;7.97;;;7.07;;
10230;SDS011;62604;49.432;8.680;2022-12-18T04:43:00;9.87;;;7.43;;
10230;SDS011;62604;49.432;8.680;2022-12-18T04:45:27;17.30;;;9.67;;
10230;SDS011;62604;49.432;8.680;2022-12-18T04:47:53;10.23;;;7.70;;
10230;SDS011;62604;49.432;8.680;2022-12-18T04:50:24;10.90;;;6.97;;
10230;SDS011;62604;49.432;8.680;2022-12-18T04:52:51;9.63;;;7.10;;
10230;SDS011;62604;49.432;8.680;2022-12-18T04:55:18;13.50;;;8.67;;
10230;SDS011;62604;49.432;8.680;2022-12-18T04:57:45;8.13;;;7.30;;
10230;SDS011;62604;49.432;8.680;2022-12-18T05:00:12;12.90;;;7.63;;
10230;SDS011;62604;49.432;8.680;2022-12-18T05:02:39;12.50;;;8.83;;
10230;SDS011;62604;49.432;8.680;2022-12-18T05:05:07;9.70;;;7.90;;
10230;SDS011;62604;49.432;8.680;2022-12-18T05:07:36;15.40;;;7.87;;
10230;SDS011;62604;49.432;8.680;2022-12-18T05:10:03;15.07;;;8.40;;
10230;SDS011;62604;49.432;8.680;2022-12-18T05:12:31;16.50;;;9.20;;
10230;SDS011;62604;49.432;8.680;2022-12-18T05:14:58;11.57;;;9.10;;
10230;SDS011;62604;49.432;8.680;2022-12-18T05:17:24;26.83;;;10.63;;
10230;SDS011;62604;49.432;8.680;2022-12-18T05:19:51;14.00;;;6.47;;
10230;SDS011;62604;49.432;8.680;2022-12-18T05:22:18;14.23;;;8.03;;
10230;SDS011;62604;49.432;8.680;2022-12-18T05:24:46;13.33;;;9.80;;
10230;SDS011;62604;49.432;8.680;2022-12-18T05:27:13;9.40;;;8.00;;
10230;SDS011;62604;49.432;8.680;2022-12-18T05:29:40;11.40;;;8.33;;
10230;SDS011;62604;49.432;8.680;2022-12-18T05:32:07;13.67;;;9.03;;
10230;SDS011;62604;49.432;8.680;2022-12-18T05:34:34;11.87;;;7.27;;
10230;SDS011;62604;49.432;8.680;2022-12-18T05:37:01;27.00;;;9.33;;
10230;SDS011;62604;49.432;8.680;2022-12-18T05:39:28;14.03;;;7.57;;
10230;SDS011;62604;49.432;8.680;2022-12-18T05:41:56;6.80;;;6.20;;
10230;SDS011;62604;49.432;8.680;2022-12-18T05:44:23;14.20;;;10.07;;
10230;SDS011;62604;49.432;8.680;2022-12-18T05:46:50;16.00;;;9.50;;
10230;SDS011;62604;49.432;8.680;2022-12-18T05:49:17;7.37;;;6.63;;
10230;SDS011;62604;49.432;8.680;2022-12-18T05:51:43;8.40;;;7.53;;
10230;SDS011;62604;49.432;8.680;2022-12-18T05:54:11;10.83;;;7.93;;
10230;SDS011;62604;49.432;8.680;2022-12-18T05:56:37;8.07;;;6.80;;
10230;SDS011;62604;49.432;8.680;2022-12-18T05:59:06;10.30;;;7.50;;
10230;SDS011;62604;49.432;8.680;2022-12-18T06:01:33;20.20;;;9.80;;
10230;SDS011;62604;49.432;8.680;2022-12-18T06:03:59;16.77;;;9.27;;
10230;SDS011;62604;49.432;8.680;2022-12-18T06:06:27;8.97;;;8.07;;
10230;SDS011;62604;49.432;8.680;2022-12-18T06:08:54;9.23;;;7.03;;
10230;SDS011;62604;49.432;8.680;2022-12-18T06:11:23;19.57;;;8.83;;
10230;SDS011;62604;49.432;8.680;2022-12-18T06:13:51;18.70;;;7.37;;
10230;SDS011;62604;49.432;8.680;2022-12-18T06:16:21;16.27;;;7.40;;
10230;SDS011;62604;49.432;8.680;2022-12-18T06:18:47;8.80;;;7.33;;
10230;SDS011;62604;49.432;8.680;2022-12-18T06:21:14;21.57;;;7.33;;
10230;SDS011;62604;49.432;8.680;2022-12-18T06:23:41;15.43;;;9.03;;
10230;SDS011;62604;49.432;8.680;2022-12-18T06:26:09;11.53;;;7.67;;
10230;SDS011;62604;49.432;8.680;2022-12-18T06:28:37;8.63;;;7.83;;
10230;SDS011;62604;49.432;8.680;2022-12-18T06:31:04;13.70;;;8.83;;
10230;SDS011;62604;49.432;8.680;2022-12-18T06:33:33;8.27;;;7.47;;
10230;SDS011;62604;49.432;8.680;2022-12-18T06:36:01;11.97;;;8.53;;
10230;SDS011;62604;49.432;8.680;2022-12-18T06:38:29;9.77;;;8.33;;
10230;SDS011;62604;49.432;8.680;2022-12-18T06:40:57;8.43;;;7.57;;
10230;SDS011;62604;49.432;8.680;2022-12-18T06:43:24;9.83;;;8.83;;
10230;SDS011;62604;49.432;8.680;2022-12-18T06:45:57;13.33;;;10.13;;
10230;SDS011;62604;49.432;8.680;2022-12-18T06:48:25;8.03;;;7.23;;
10230;SDS011;62604;49.432;8.680;2022-12-18T06:50:53;11.70;;;9.10;;
10230;SDS011;62604;49.432;8.680;2022-12-18T06:53:20;11.00;;;8.30;;
10230;SDS011;62604;49.432;8.680;2022-12-18T06:55:47;9.53;;;7.67;;
10230;SDS011;62604;49.432;8.680;2022-12-18T06:58:14;15.87;;;9.30;;
10230;SDS011;62604;49.432;8.680;2022-12-18T07:00:42;12.20;;;7.97;;
10230;SDS011;62604;49.432;8.680;2022-12-18T07:03:09;9.33;;;6.70;;
10230;SDS011;62604;49.432;8.680;2022-12-18T07:05:39;15.50;;;8.20;;
10230;SDS011;62604;49.432;8.680;2022-12-18T07:08:12;16.77;;;8.43;;
10230;SDS011;62604;49.432;8.680;2022-12-18T07:10:43;9.30;;;7.73;;
10230;SDS011;62604;49.432;8.680;2022-12-18T07:13:10;11.03;;;8.47;;
10230;SDS011;62604;49.432;8.680;2022-12-18T07:15:37;11.40;;;7.83;;
10230;SDS011;62604;49.432;8.680;2022-12-18T07:18:04;14.47;;;9.10;;
10230;SDS011;62604;49.432;8.680;2022-12-18T07:20:31;10.87;;;9.03;;
10230;SDS011;62604;49.432;8.680;2022-12-18T07:22:58;11.03;;;7.73;;
10230;SDS011;62604;49.432;8.680;2022-12-18T07:25:26;9.93;;;6.87;;
10230;SDS011;62604;49.432;8.680;2022-12-18T07:27:53;11.70;;;9.13;;
10230;SDS011;62604;49.432;8.680;2022-12-18T07:30:20;17.53;;;10.57;;
10230;SDS011;62604;49.432;8.680;2022-12-18T07:32:47;10.57;;;6.77;;
10230;SDS011;62604;49.432;8.680;2022-12-18T07:35:14;12.73;;;8.43;;
10230;SDS011;62604;49.432;8.680;2022-12-18T07:37:41;12.20;;;9.03;;
10230;SDS011;62604;49.432;8.680;2022-12-18T07:40:08;17.00;;;7.97;;
10230;SDS011;62604;49.432;8.680;2022-12-18T07:42:44;9.70;;;8.37;;
10230;SDS011;62604;49.432;8.680;2022-12-18T07:45:11;9.43;;;7.83;;
10230;SDS011;62604;49.432;8.680;2022-12-18T07:47:39;13.23;;;8.20;;
10230;SDS011;62604;49.432;8.680;2022-12-18T07:50:07;20.43;;;10.60;;
10230;SDS011;62604;49.432;8.680;2022-12-18T07:52:34;9.37;;;8.33;;
10230;SDS011;62604;49.432;8.680;2022-12-18T07:55:01;11.03;;;7.90;;
10230;SDS011;62604;49.432;8.680;2022-12-18T07:57:28;8.43;;;7.43;;
10230;SDS011;62604;49.432;8.680;2022-12-18T07:59:57;11.70;;;9.00;;
10230;SDS011;62604;49.432;8.680;2022-12-18T08:02:24;10.17;;;7.40;;
10230;SDS011;62604;49.432;8.680;2022-12-18T08:04:51;9.67;;;8.13;;
10230;SDS011;62604;49.432;8.680;2022-12-18T08:07:18;17.50;;;8.53;;
10230;SDS011;62604;49.432;8.680;2022-12-18T08:09:44;16.70;;;8.73;;
10230;SDS011;62604;49.432;8.680;2022-12-18T08:12:11;13.87;;;9.67;;
10230;SDS011;62604;49.432;8.680;2022-12-18T08:14:38;10.17;;;9.30;;
10230;SDS011;62604;49.432;8.680;2022-12-18T08:17:07;16.20;;;9.03;;
10230;SDS011;62604;49.432;8.680;2022-12-18T08:19:34;11.00;;;9.90;;
10230;SDS011;62604;49.432;8.680;2022-12-18T08:22:01;14.83;;;10.00;;
10230;SDS011;62604;49.432;8.680;2022-12-18T08:24:28;11.00;;;8.57;;
10230;SDS011;62604;49.432;8.680;2022-12-18T08:26:55;15.03;;;10.63;;
10230;SDS011;62604;49.432;8.680;2022-12-18T08:29:23;10.10;;;7.87;;
10230;SDS011;62604;49.432;8.680;2022-12-18T08:31:50;19.10;;;8.40;;
10230;SDS011;62604;49.432;8.680;2022-12-18T08:34:18;20.80;;;9.93;;
10230;SDS011;62604;49.432;8.680;2022-12-18T08:36:45;11.70;;;8.20;;
10230;SDS011;62604;49.432;8.680;2022-12-18T08:39:12;10.47;;;8.27;;
10230;SDS011;62604;49.432;8.680;2022-12-18T08:41:39;11.67;;;10.40;;
10230;SDS011;62604;49.432;8.680;2022-12-18T08:44:06;12.60;;;7.97;;
10230;SDS011;62604;49.432;8.680;2022-12-18T08:46:51;10.17;;;7.87;;
10230;SDS011;62604;49.432;8.680;2022-12-18T08:49:20;8.10;;;7.30;;
10230;SDS011;62604;49.432;8.680;2022-12-18T08:51:46;17.57;;;8.87;;
10230;SDS011;62604;49.432;8.680;2022-12-18T08:54:13;11.57;;;8.30;;
10230;SDS011;62604;49.432;8.680;2022-12-18T08:56:40;16.73;;;9.77;;
10230;SDS011;62604;49.432;8.680;2022-12-18T08:59:08;11.40;;;9.70;;
10230;SDS011;62604;49.432;8.680;2022-12-18T09:01:35;17.83;;;10.13;;
10230;SDS011;62604;49.432;8.680;2022-12-18T09:04:02;12.77;;;7.33;;
10230;SDS011;62604;49.432;8.680;2022-12-18T09:06:30;9.60;;;8.17;;
10230;SDS011;62604;49.432;8.680;2022-12-18T09:08:57;13.00;;;10.37;;
10230;SDS011;62604;49.432;8.680;2022-12-18T09:11:24;9.47;;;6.93;;
10230;SDS011;62604;49.432;8.680;2022-12-18T09:13:54;12.60;;;9.40;;
10230;SDS011;62604;49.432;8.680;2022-12-18T09:16:22;17.17;;;10.57;;
10230;SDS011;62604;49.432;8.680;2022-12-18T09:18:49;6.23;;;5.40;;
10230;SDS011;62604;49.432;8.680;2022-12-18T09:21:17;12.63;;;8.80;;
10230;SDS011;62604;49.432;8.680;2022-12-18T09:23:50;16.67;;;6.20;;
10230;SDS011;62604;49.432;8.680;2022-12-18T09:26:17;8.90;;;7.07;;
10230;SDS011;62604;49.432;8.680;2022-12-18T09:28:44;12.77;;;7.33;;
10230;SDS011;62604;49.432;8.680;2022-12-18T09:31:11;15.20;;;9.80;;
10230;SDS011;62604;49.432;8.680;2022-12-18T09:33:39;13.17;;;7.30;;
10230;SDS011;62604;49.432;8.680;2022-12-18T09:36:07;15.40;;;9.50;;
10230;SDS011;62604;49.432;8.680;2022-12-18T09:38:35;17.30;;;8.40;;
10230;SDS011;62604;49.432;8.680;2022-12-18T09:41:04;18.30;;;10.20;;
10230;SDS011;62604;49.432;8.680;2022-12-18T09:43:43;17.13;;;10.60;;
10230;SDS011;62604;49.432;8.680;2022-12-18T09:46:16;13.67;;;10.00;;
10230;SDS011;62604;49.432;8.680;2022-12-18T09:48:47;18.23;;;9.93;;
10230;SDS011;62604;49.432;8.680;2022-12-18T09:51:22;13.50;;;10.50;;
10230;SDS011;62604;49.432;8.680;2022-12-18T09:53:52;18.50;;;9.13;;
10230;SDS011;62604;49.432;8.680;2022-12-18T09:56:25;20.50;;;13.33;;
10230;SDS011;62604;49.432;8.680;2022-12-18T09:58:57;23.87;;;11.70;;
10230;SDS011;62604;49.432;8.680;2022-12-18T10:01:26;24.23;;;11.67;;
10230;SDS011;62604;49.432;8.680;2022-12-18T10:03:54;19.07;;;9.73;;
10230;SDS011;62604;49.432;8.680;2022-12-18T10:06:22;21.23;;;10.13;;
10230;SDS011;62604;49.432;8.680;2022-12-18T10:08:54;23.77;;;10.20;;
10230;SDS011;62604;49.432;8.680;2022-12-18T10:11:29;19.47;;;10.67;;
10230;SDS011;62604;49.432;8.680;2022-12-18T10:14:05;19.10;;;10.50;;
10230;SDS011;62604;49.432;8.680;2022-12-18T10:16:43;15.00;;;10.00;;
10230;SDS011;62604;49.432;8.680;2022-12-18T10:19:22;12.63;;;9.73;;
10230;SDS011;62604;49.432;8.680;2022-12-18T10:22:03;19.80;;;10.57;;
10230;SDS011;62604;49.432;8.680;2022-12-18T10:24:44;15.07;;;10.73;;
10230;SDS011;62604;49.432;8.680;2022-12-18T10:27:21;15.17;;;9.13;;
10230;SDS011;62604;49.432;8.680;2022-12-18T10:29:50;18.10;;;12.03;;
10230;SDS011;62604;49.432;8.680;2022-12-18T10:32:18;20.30;;;10.20;;
10230;SDS011;62604;49.432;8.680;2022-12-18T10:34:47;20.73;;;11.17;;
10230;SDS011;62604;49.432;8.680;2022-12-18T10:37:16;21.17;;;10.90;;
10230;SDS011;62604;49.432;8.680;2022-12-18T10:39:44;17.20;;;11.03;;
10230;SDS011;62604;49.432;8.680;2022-12-18T10:42:16;19.33;;;10.03;;
10230;SDS011;62604;49.432;8.680;2022-12-18T10:44:45;17.47;;;10.50;;
10230;SDS011;62604;49.432;8.680;2022-12-18T10:47:26;19.27;;;10.73;;
10230;SDS011;62604;49.432;8.680;2022-12-18T10:49:53;17.83;;;11.20;;
10230;SDS011;62604;49.432;8.680;2022-12-18T10:52:21;25.93;;;10.60;;
10230;SDS011;62604;49.432;8.680;2022-12-18T10:54:51;14.83;;;8.57;;
10230;SDS011;62604;49.432;8.680;2022-12-18T10:57:32;16.83;;;7.90;;
10230;SDS011;62604;49.432;8.680;2022-12-18T11:00:18;15.10;;;8.33;;
10230;SDS011;62604;49.432;8.680;2022-12-18T11:02:50;18.50;;;7.73;;
10230;SDS011;62604;49.432;8.680;2022-12-18T11:05:25;15.30;;;9.20;;
10230;SDS011;62604;49.432;8.680;2022-12-18T11:07:53;12.53;;;8.07;;
10230;SDS011;62604;49.432;8.680;2022-12-18T11:10:22;20.00;;;8.33;;
10230;SDS011;62604;49.432;8.680;2022-12-18T11:12:53;18.20;;;8.60;;
10230;SDS011;62604;49.432;8.680;2022-12-18T11:15:20;18.13;;;8.60;;
10230;SDS011;62604;49.432;8.680;2022-12-18T11:17:50;23.87;;;10.50;;
10230;SDS011;62604;49.432;8.680;2022-12-18T11:20:20;18.27;;;11.43;;
10230;SDS011;62604;49.432;8.680;2022-12-18T11:22:56;22.80;;;11.60;;
10230;SDS011;62604;49.432;8.680;2022-12-18T11:25:25;22.73;;;11.47;;
10230;SDS011;62604;49.432;8.680;2022-12-18T11:27:58;17.23;;;10.37;;
10230;SDS011;62604;49.432;8.680;2022-12-18T11:30:26;22.00;;;10.83;;
10230;SDS011;62604;49.432;8.680;2022-12-18T11:32:59;21.43;;;11.90;;
10230;SDS011;62604;49.432;8.680;2022-12-18T11:35:35;21.53;;;11.63;;
10230;SDS011;62604;49.432;8.680;2022-12-18T11:38:09;26.43;;;11.50;;
10230;SDS011;62604;49.432;8.680;2022-12-18T11:40:43;24.20;;;11.77;;
10230;SDS011;62604;49.432;8.680;2022-12-18T11:43:17;28.10;;;12.20;;
10230;SDS011;62604;49.432;8.680;2022-12-18T11:45:52;27.37;;;12.27;;
10230;SDS011;62604;49.432;8.680;2022-12-18T11:48:23;25.77;;;12.70;;
10230;SDS011;62604;49.432;8.680;2022-12-18T11:50:53;23.43;;;11.80;;
10230;SDS011;62604;49.432;8.680;2022-12-18T11:53:22;26.10;;;12.40;;
10230;SDS011;62604;49.432;8.680;2022-12-18T11:55:56;25.73;;;12.50;;
10230;SDS011;62604;49.432;8.680;2022-12-18T11:58:37;25.17;;;12.33;;
10230;SDS011;62604;49.432;8.680;2022-12-18T12:01:16;29.47;;;10.93;;
10230;SDS011;62604;49.432;8.680;2022-12-18T12:06:48;23.60;;;10.00;;
10230;SDS011;62604;49.432;8.680;2022-12-18T12:09:26;22.13;;;10.87;;
10230;SDS011;62604;49.432;8.680;2022-12-18T12:12:03;26.83;;;11.53;;
10230;SDS011;62604;49.432;8.680;2022-12-18T12:14:49;21.40;;;12.40;;
10230;SDS011;62604;49.432;8.680;2022-12-18T12:17:27;17.67;;;11.17;;
10230;SDS011;62604;49.432;8.680;2022-12-18T12:20:06;13.97;;;6.60;;
10230;SDS011;62604;49.432;8.680;2022-12-18T12:22:41;17.63;;;10.93;;
10230;SDS011;62604;49.432;8.680;2022-12-18T12:25:19;16.30;;;10.07;;
10230;SDS011;62604;49.432;8.680;2022-12-18T12:27:57;23.13;;;11.23;;
10230;SDS011;62604;49.432;8.680;2022-12-18T12:30:39;23.63;;;9.83;;
10230;SDS011;62604;49.432;8.680;2022-12-18T12:33:19;19.20;;;10.50;;
10230;SDS011;62604;49.432;8.680;2022-12-18T12:35:57;24.87;;;9.73;;
10230;SDS011;62604;49.432;8.680;2022-12-18T12:38:31;21.90;;;8.53;;
10230;SDS011;62604;49.432;8.680;2022-12-18T12:41:04;20.27;;;9.97;;
10230;SDS011;62604;49.432;8.680;2022-12-18T12:43:53;20.10;;;9.57;;
10230;SDS011;62604;49.432;8.680;2022-12-18T12:46:24;19.87;;;9.60;;
10230;SDS011;62604;49.432;8.680;2022-12-18T12:48:53;17.17;;;9.83;;
10230;SDS011;62604;49.432;8.680;2022-12-18T12:51:25;23.83;;;9.87;;
10230;SDS011;62604;49.432;8.680;2022-12-18T12:53:54;19.60;;;9.33;;
10230;SDS011;62604;49.432;8.680;2022-12-18T12:56:24;20.00;;;9.93;;
10230;SDS011;62604;49.432;8.680;2022-12-18T12:59:01;20.80;;;10.47;;
10230;SDS011;62604;49.432;8.680;2022-12-18T13:01:46;18.43;;;9.80;;
10230;SDS011;62604;49.432;8.680;2022-12-18T13:04:21;16.77;;;8.73;;
10230;SDS011;62604;49.432;8.680;2022-12-18T13:06:58;19.90;;;10.03;;
10230;SDS011;62604;49.432;8.680;2022-12-18T13:09:30;19.77;;;10.17;;
10230;SDS011;62604;49.432;8.680;2022-12-18T13:12:01;21.07;;;10.17;;
10230;SDS011;62604;49.432;8.680;2022-12-18T13:14:47;19.70;;;9.47;;
10230;SDS011;62604;49.432;8.680;2022-12-18T13:17:17;23.40;;;9.27;;
10230;SDS011;62604;49.432;8.680;2022-12-18T13:20:11;19.50;;;9.63;;
10230;SDS011;62604;49.432;8.680;2022-12-18T13:22:40;16.53;;;9.47;;
10230;SDS011;62604;49.432;8.680;2022-12-18T13:27:59;16.73;;;9.83;;
10230;SDS011;62604;49.432;8.680;2022-12-18T13:36:27;21.00;;;10.17;;
10230;SDS011;62604;49.432;8.680;2022-12-18T13:39:20;21.37;;;9.67;;
10230;SDS011;62604;49.432;8.680;2022-12-18T13:48:05;16.43;;;8.10;;
10230;SDS011;62604;49.432;8.680;2022-12-18T13:50:43;25.43;;;8.43;;
10230;SDS011;62604;49.432;8.680;2022-12-18T13:53:20;15.53;;;7.40;;
10230;SDS011;62604;49.432;8.680;2022-12-18T13:55:50;21.03;;;8.80;;
10230;SDS011;62604;49.432;8.680;2022-12-18T13:58:17;19.90;;;8.10;;
10230;SDS011;62604;49.432;8.680;2022-12-18T14:00:44;21.80;;;8.80;;
10230;SDS011;62604;49.432;8.680;2022-12-18T14:03:16;20.97;;;8.87;;
10230;SDS011;62604;49.432;8.680;2022-12-18T14:05:46;13.77;;;7.40;;
10230;SDS011;62604;49.432;8.680;2022-12-18T14:08:20;17.93;;;8.47;;
10230;SDS011;62604;49.432;8.680;2022-12-18T14:10:48;20.67;;;8.23;;
10230;SDS011;62604;49.432;8.680;2022-12-18T14:13:19;25.53;;;11.27;;
10230;SDS011;62604;49.432;8.680;2022-12-18T14:15:50;28.57;;;12.37;;
10230;SDS011;62604;49.432;8.680;2022-12-18T14:18:19;24.97;;;10.63;;
10230;SDS011;62604;49.432;8.680;2022-12-18T14:20:49;25.40;;;10.17;;
10230;SDS011;62604;49.432;8.680;2022-12-18T14:23:25;20.70;;;10.17;;
10230;SDS011;62604;49.432;8.680;2022-12-18T14:25:54;28.37;;;11.80;;
10230;SDS011;62604;49.432;8.680;2022-12-18T14:28:21;26.67;;;12.00;;
10230;SDS011;62604;49.432;8.680;2022-12-18T14:30:48;28.57;;;11.93;;
10230;SDS011;62604;49.432;8.680;2022-12-18T14:33:16;23.77;;;12.13;;
10230;SDS011;62604;49.432;8.680;2022-12-18T14:35:53;30.57;;;12.20;;
10230;SDS011;62604;49.432;8.680;2022-12-18T14:38:24;27.60;;;13.33;;
10230;SDS011;62604;49.432;8.680;2022-12-18T14:40:56;25.63;;;12.33;;
10230;SDS011;62604;49.432;8.680;2022-12-18T14:43:24;23.20;;;12.07;;
10230;SDS011;62604;49.432;8.680;2022-12-18T14:45:52;27.37;;;12.17;;
10230;SDS011;62604;49.432;8.680;2022-12-18T14:48:20;19.80;;;10.57;;
10230;SDS011;62604;49.432;8.680;2022-12-18T14:50:57;22.50;;;9.67;;
10230;SDS011;62604;49.432;8.680;2022-12-18T14:53:34;21.43;;;9.33;;
10230;SDS011;62604;49.432;8.680;2022-12-18T14:56:03;16.73;;;8.83;;
10230;SDS011;62604;49.432;8.680;2022-12-18T14:58:49;20.67;;;10.37;;
10230;SDS011;62604;49.432;8.680;2022-12-18T15:01:20;25.47;;;12.13;;
10230;SDS011;62604;49.432;8.680;2022-12-18T15:03:50;14.73;;;8.83;;
10230;SDS011;62604;49.432;8.680;2022-12-18T15:06:23;23.43;;;10.40;;
10230;SDS011;62604;49.432;8.680;2022-12-18T15:08:53;17.90;;;9.27;;
10230;SDS011;62604;49.432;8.680;2022-12-18T15:11:27;19.03;;;8.67;;